Time,TemperatureF,DewpointF,PressureIn,WindDirection,WindDirectionDegrees,WindSpeedMPH,WindSpeedGustMPH,Humidity,HourlyPrecipIn,Conditions,Clouds,dailyrainin,SoftwareType,DateUTC
2013-05-10 00:05:00,62.4,57.9,30.33,East,90,0.0,0.0,85,0.00,,,0.00,meteobridge,2013-05-10 06:05:00,
2013-05-10 00:11:00,62.6,58.1,30.33,South,180,0.0,0.0,85,0.00,,,0.00,meteobridge,2013-05-10 06:11:00,
2013-05-10 00:17:00,61.9,57.6,30.33,South,180,0.0,0.0,86,0.00,,,0.00,meteobridge,2013-05-10 06:17:00,
2013-05-10 00:24:00,62.2,58.6,30.32,South,180,0.0,0.0,88,0.00,,,0.00,meteobridge,2013-05-10 06:24:00,
2013-05-10 00:30:00,62.1,58.8,30.33,North,0,0.0,0.0,89,0.01,,,0.01,meteobridge,2013-05-10 06:30:00,
2013-05-10 00:37:00,62.2,59.0,30.33,East,90,0.0,0.0,89,0.01,,,0.01,meteobridge,2013-05-10 06:37:00,
2013-05-10 00:43:00,61.9,58.3,30.33,East,90,0.0,2.2,88,0.01,,,0.01,meteobridge,2013-05-10 06:43:00,
2013-05-10 00:49:00,62.1,58.5,30.33,South,180,0.0,0.0,88,0.01,,,0.01,meteobridge,2013-05-10 06:49:00,
2013-05-10 00:55:00,62.2,59.0,30.32,East,90,0.0,0.0,89,0.01,,,0.01,meteobridge,2013-05-10 06:55:00,
2013-05-10 01:02:00,62.2,59.0,30.32,SE,135,0.0,0.0,89,0.01,,,0.01,meteobridge,2013-05-10 07:02:00,
2013-05-10 01:08:00,62.4,59.2,30.31,East,90,0.0,0.0,89,0.01,,,0.01,meteobridge,2013-05-10 07:08:00,
2013-05-10 01:14:00,62.4,59.2,30.30,SE,135,0.7,0.7,89,0.01,,,0.01,meteobridge,2013-05-10 07:14:00,
2013-05-10 01:21:00,62.2,58.6,30.30,East,90,0.0,0.0,88,0.01,,,0.01,meteobridge,2013-05-10 07:21:00,
2013-05-10 01:27:00,62.6,58.3,30.30,East,90,0.0,0.7,86,0.00,,,0.01,meteobridge,2013-05-10 07:27:00,
2013-05-10 01:33:00,62.6,58.3,30.29,SE,135,0.0,0.0,86,0.00,,,0.01,meteobridge,2013-05-10 07:33:00,
2013-05-10 01:40:00,62.6,58.3,30.29,North,0,0.0,0.0,86,0.00,,,0.01,meteobridge,2013-05-10 07:40:00,
2013-05-10 01:46:00,62.4,58.5,30.29,North,0,0.0,0.0,87,0.00,,,0.01,meteobridge,2013-05-10 07:46:00,
2013-05-10 01:52:00,62.6,58.3,30.28,East,90,0.0,0.0,86,0.00,,,0.01,meteobridge,2013-05-10 07:52:00,
2013-05-10 01:59:00,62.6,58.1,30.28,South,180,2.2,2.2,85,0.00,,,0.01,meteobridge,2013-05-10 07:59:00,
2013-05-10 02:05:00,62.1,58.1,30.27,East,90,0.0,0.7,87,0.00,,,0.01,meteobridge,2013-05-10 08:05:00,
2013-05-10 02:11:00,62.2,58.3,30.27,East,90,0.0,0.0,87,0.00,,,0.01,meteobridge,2013-05-10 08:11:00,
2013-05-10 02:20:00,62.4,58.5,30.27,NE,45,0.0,0.0,87,0.00,,,0.01,meteobridge,2013-05-10 08:20:00,
2013-05-10 02:26:00,62.8,58.3,30.26,SE,135,0.7,0.7,85,0.00,,,0.01,meteobridge,2013-05-10 08:26:00,
2013-05-10 02:32:00,62.6,58.1,30.26,East,90,0.0,0.7,85,0.00,,,0.01,meteobridge,2013-05-10 08:32:00,
2013-05-10 02:38:00,62.8,58.5,30.25,NE,45,0.0,0.0,86,0.00,,,0.01,meteobridge,2013-05-10 08:38:00,
2013-05-10 02:45:00,62.2,58.3,30.25,NE,45,0.0,0.0,87,0.00,,,0.01,meteobridge,2013-05-10 08:45:00,
2013-05-10 02:51:00,61.7,58.1,30.25,South,180,0.0,0.0,88,0.00,,,0.01,meteobridge,2013-05-10 08:51:00,
2013-05-10 02:57:00,62.8,58.5,30.25,South,180,2.2,2.2,86,0.00,,,0.01,meteobridge,2013-05-10 08:57:00,
2013-05-10 03:04:00,62.4,57.9,30.25,SE,135,2.2,3.1,85,0.00,,,0.01,meteobridge,2013-05-10 09:04:00,
2013-05-10 03:10:00,62.4,57.9,30.25,East,90,3.8,3.8,85,0.00,,,0.01,meteobridge,2013-05-10 09:10:00,
2013-05-10 03:16:00,62.1,57.6,30.25,North,0,0.0,0.0,85,0.00,,,0.01,meteobridge,2013-05-10 09:16:00,
2013-05-10 03:23:00,61.7,57.4,30.26,East,90,0.0,0.7,86,0.00,,,0.01,meteobridge,2013-05-10 09:23:00,
2013-05-10 03:31:00,61.2,57.6,30.26,North,0,1.6,1.6,88,0.00,,,0.01,meteobridge,2013-05-10 09:31:00,
2013-05-10 03:38:00,61.5,57.9,30.26,SW,225,0.0,0.0,88,0.00,,,0.01,meteobridge,2013-05-10 09:38:00,
2013-05-10 03:44:00,61.0,57.4,30.26,South,180,0.0,0.0,88,0.00,,,0.01,meteobridge,2013-05-10 09:44:00,
2013-05-10 03:52:00,61.2,57.9,30.27,South,180,3.1,6.0,89,0.00,,,0.01,meteobridge,2013-05-10 09:52:00,
2013-05-10 03:59:00,60.8,57.6,30.27,South,180,0.0,0.0,89,0.00,,,0.01,meteobridge,2013-05-10 09:59:00,
2013-05-10 04:05:00,60.6,57.7,30.27,South,180,0.0,0.0,90,0.00,,,0.01,meteobridge,2013-05-10 10:05:00,
2013-05-10 04:13:00,60.8,57.6,30.27,South,180,2.2,2.2,89,0.00,,,0.01,meteobridge,2013-05-10 10:13:00,
2013-05-10 04:20:00,60.8,57.6,30.27,South,180,2.2,4.5,89,0.00,,,0.01,meteobridge,2013-05-10 10:20:00,
2013-05-10 04:26:00,60.8,57.9,30.27,South,180,0.0,0.0,90,0.00,,,0.01,meteobridge,2013-05-10 10:26:00,
2013-05-10 04:33:00,60.6,57.9,30.27,South,180,0.0,0.0,91,0.00,,,0.01,meteobridge,2013-05-10 10:33:00,
2013-05-10 04:39:00,60.1,57.2,30.28,NE,45,0.0,0.0,90,0.00,,,0.01,meteobridge,2013-05-10 10:39:00,
2013-05-10 04:45:00,60.1,57.2,30.27,SE,135,0.0,0.0,90,0.00,,,0.01,meteobridge,2013-05-10 10:45:00,
2013-05-10 04:52:00,59.4,56.1,30.27,SE,135,1.6,1.6,89,0.00,,,0.01,meteobridge,2013-05-10 10:52:00,
2013-05-10 04:58:00,59.4,56.5,30.28,East,90,1.6,1.6,90,0.00,,,0.01,meteobridge,2013-05-10 10:58:00,
2013-05-10 05:04:00,59.5,56.7,30.27,SE,135,2.2,2.2,90,0.00,,,0.01,meteobridge,2013-05-10 11:04:00,
2013-05-10 05:11:00,60.3,57.6,30.27,South,180,0.7,2.2,91,0.00,,,0.01,meteobridge,2013-05-10 11:11:00,
2013-05-10 05:19:00,60.6,57.9,30.28,East,90,0.0,0.0,91,0.00,,,0.01,meteobridge,2013-05-10 11:19:00,
2013-05-10 05:25:00,60.6,57.7,30.28,SE,135,0.0,0.0,90,0.00,,,0.01,meteobridge,2013-05-10 11:25:00,
2013-05-10 05:32:00,60.6,57.4,30.28,NE,45,0.0,0.0,89,0.00,,,0.01,meteobridge,2013-05-10 11:32:00,
2013-05-10 05:38:00,60.8,57.2,30.28,East,90,0.0,0.0,88,0.00,,,0.01,meteobridge,2013-05-10 11:38:00,
2013-05-10 05:44:00,60.6,57.0,30.28,East,90,0.0,0.0,88,0.00,,,0.01,meteobridge,2013-05-10 11:44:00,
2013-05-10 05:51:00,60.6,57.0,30.28,East,90,0.0,0.0,88,0.00,,,0.01,meteobridge,2013-05-10 11:51:00,
2013-05-10 05:57:00,60.6,57.0,30.28,East,90,0.0,0.0,88,0.00,,,0.01,meteobridge,2013-05-10 11:57:00,
2013-05-10 06:03:00,60.6,56.7,30.28,East,90,0.0,0.0,87,0.00,,,0.01,meteobridge,2013-05-10 12:03:00,
2013-05-10 06:10:00,60.8,56.7,30.28,SE,135,0.0,0.0,86,0.00,,,0.01,meteobridge,2013-05-10 12:10:00,
2013-05-10 06:16:00,61.2,57.2,30.28,East,90,0.0,0.0,87,0.00,,,0.01,meteobridge,2013-05-10 12:16:00,
2013-05-10 06:22:00,61.5,57.4,30.29,South,180,0.0,0.0,86,0.00,,,0.01,meteobridge,2013-05-10 12:22:00,
2013-05-10 06:29:00,62.6,58.1,30.29,SE,135,0.0,2.2,85,0.00,,,0.01,meteobridge,2013-05-10 12:29:00,
2013-05-10 06:35:00,63.5,58.6,30.29,North,0,0.0,0.0,84,0.00,,,0.01,meteobridge,2013-05-10 12:35:00,
2013-05-10 06:41:00,63.5,58.6,30.29,South,180,0.0,0.0,84,0.00,,,0.01,meteobridge,2013-05-10 12:41:00,
2013-05-10 06:48:00,64.0,58.8,30.29,South,180,2.2,2.2,83,0.00,,,0.01,meteobridge,2013-05-10 12:48:00,
2013-05-10 06:54:00,64.4,59.2,30.30,South,180,5.4,5.4,83,0.00,,,0.01,meteobridge,2013-05-10 12:54:00,
2013-05-10 07:00:00,64.6,59.4,30.30,South,180,0.0,3.8,83,0.00,,,0.01,meteobridge,2013-05-10 13:00:00,
2013-05-10 07:07:00,65.8,59.9,30.30,South,180,3.8,3.8,81,0.00,,,0.01,meteobridge,2013-05-10 13:07:00,
2013-05-10 07:13:00,66.9,59.9,30.30,South,180,4.5,4.5,78,0.00,,,0.01,meteobridge,2013-05-10 13:13:00,
2013-05-10 07:19:00,68.2,59.9,30.31,South,180,0.0,2.2,75,0.00,,,0.01,meteobridge,2013-05-10 13:19:00,
2013-05-10 07:26:00,68.5,59.5,30.30,SE,135,3.8,4.5,73,0.00,,,0.01,meteobridge,2013-05-10 13:26:00,
2013-05-10 07:32:00,69.3,59.9,30.31,South,180,4.5,4.5,72,0.00,,,0.01,meteobridge,2013-05-10 13:32:00,
2013-05-10 07:38:00,70.0,59.7,30.31,SE,135,2.2,3.1,70,0.00,,,0.01,meteobridge,2013-05-10 13:38:00,
2013-05-10 07:45:00,71.4,59.9,30.31,SE,135,3.1,3.8,67,0.00,,,0.01,meteobridge,2013-05-10 13:45:00,
2013-05-10 07:51:00,69.8,59.5,30.31,South,180,8.3,8.3,70,0.00,,,0.01,meteobridge,2013-05-10 13:51:00,
2013-05-10 07:57:00,69.6,61.0,30.31,SW,225,5.4,5.4,74,0.00,,,0.01,meteobridge,2013-05-10 13:57:00,
2013-05-10 08:04:00,69.6,60.6,30.30,South,180,3.8,7.6,73,0.00,,,0.01,meteobridge,2013-05-10 14:04:00,
2013-05-10 08:10:00,70.5,60.6,30.31,South,180,4.5,6.0,71,0.00,,,0.01,meteobridge,2013-05-10 14:10:00,
2013-05-10 08:18:00,69.8,60.4,30.31,South,180,7.6,9.8,72,0.00,,,0.01,meteobridge,2013-05-10 14:18:00,
2013-05-10 08:25:00,68.2,59.5,30.31,South,180,4.5,6.9,74,0.00,,,0.01,meteobridge,2013-05-10 14:25:00,
2013-05-10 08:31:00,67.8,60.3,30.31,East,90,5.4,6.9,77,0.00,,,0.01,meteobridge,2013-05-10 14:31:00,
2013-05-10 08:38:00,68.2,59.9,30.31,SE,135,8.3,8.3,75,0.00,,,0.01,meteobridge,2013-05-10 14:38:00,
2013-05-10 08:44:00,67.8,60.3,30.32,SE,135,3.8,6.0,77,0.00,,,0.01,meteobridge,2013-05-10 14:44:00,
2013-05-10 08:50:00,68.4,60.4,30.32,West,270,4.5,4.5,76,0.00,,,0.01,meteobridge,2013-05-10 14:50:00,
2013-05-10 08:57:00,68.7,60.4,30.32,SE,135,4.5,6.9,75,0.00,,,0.01,meteobridge,2013-05-10 14:57:00,
2013-05-10 09:03:00,69.8,61.2,30.31,West,270,6.0,6.0,74,0.00,,,0.01,meteobridge,2013-05-10 15:03:00,
2013-05-10 09:09:00,69.1,60.8,30.31,SE,135,5.4,6.0,75,0.00,,,0.01,meteobridge,2013-05-10 15:09:00,
2013-05-10 09:16:00,68.9,60.6,30.31,SW,225,4.5,6.9,75,0.00,,,0.01,meteobridge,2013-05-10 15:16:00,
2013-05-10 09:22:00,69.3,61.0,30.31,SE,135,3.8,7.6,75,0.00,,,0.01,meteobridge,2013-05-10 15:22:00,
2013-05-10 09:28:00,69.8,61.2,30.32,NE,45,13.6,13.6,74,0.00,,,0.01,meteobridge,2013-05-10 15:28:00,
2013-05-10 09:35:00,68.2,59.9,30.32,South,180,11.4,12.1,75,0.00,,,0.01,meteobridge,2013-05-10 15:35:00,
2013-05-10 09:41:00,68.2,61.0,30.32,South,180,9.2,9.8,78,0.00,,,0.01,meteobridge,2013-05-10 15:41:00,
2013-05-10 09:47:00,68.5,61.3,30.32,South,180,12.1,12.1,78,0.00,,,0.01,meteobridge,2013-05-10 15:47:00,
2013-05-10 09:54:00,67.8,61.0,30.32,SE,135,9.2,9.2,79,0.00,,,0.01,meteobridge,2013-05-10 15:54:00,
2013-05-10 10:00:00,67.8,61.3,30.32,West,270,9.2,9.2,80,0.00,,,0.01,meteobridge,2013-05-10 16:00:00,
2013-05-10 10:06:00,67.8,61.3,30.32,SE,135,9.2,9.2,80,0.00,,,0.01,meteobridge,2013-05-10 16:06:00,
2013-05-10 10:13:00,71.1,62.8,30.32,South,180,6.9,9.8,75,0.00,,,0.01,meteobridge,2013-05-10 16:13:00,
2013-05-10 10:19:00,70.9,61.0,30.32,West,270,5.4,9.2,71,0.00,,,0.01,meteobridge,2013-05-10 16:19:00,
2013-05-10 10:25:00,72.3,61.2,30.32,South,180,9.2,9.2,68,0.00,,,0.01,meteobridge,2013-05-10 16:25:00,
2013-05-10 10:32:00,72.7,62.8,30.32,West,270,4.5,7.6,71,0.00,,,0.01,meteobridge,2013-05-10 16:32:00,
2013-05-10 10:38:00,70.7,61.2,30.32,SW,225,9.8,9.8,72,0.00,,,0.01,meteobridge,2013-05-10 16:38:00,
2013-05-10 10:44:00,72.5,62.2,30.32,SW,225,8.3,8.3,70,0.00,,,0.01,meteobridge,2013-05-10 16:44:00,
2013-05-10 10:51:00,70.5,61.0,30.32,SE,135,9.8,9.8,72,0.00,,,0.01,meteobridge,2013-05-10 16:51:00,
2013-05-10 10:59:00,69.8,61.2,30.32,South,180,9.2,9.2,74,0.00,,,0.01,meteobridge,2013-05-10 16:59:00,
2013-05-10 11:05:00,70.7,62.1,30.31,South,180,8.3,8.3,74,0.00,,,0.01,meteobridge,2013-05-10 17:05:00,
2013-05-10 11:12:00,70.7,61.7,30.31,North,0,3.1,6.9,73,0.00,,,0.01,meteobridge,2013-05-10 17:12:00,
2013-05-10 11:18:00,74.8,64.0,30.31,North,0,0.0,0.0,69,0.00,,,0.01,meteobridge,2013-05-10 17:18:00,
2013-05-10 11:24:00,74.8,63.1,30.30,South,180,1.6,1.6,67,0.00,,,0.01,meteobridge,2013-05-10 17:24:00,
2013-05-10 11:31:00,74.1,61.2,30.30,South,180,3.8,9.2,64,0.00,,,0.01,meteobridge,2013-05-10 17:31:00,
2013-05-10 11:37:00,74.1,61.2,30.30,East,90,3.8,5.4,64,0.00,,,0.01,meteobridge,2013-05-10 17:37:00,
2013-05-10 11:43:00,75.0,62.1,30.29,NW,315,3.8,3.8,64,0.00,,,0.01,meteobridge,2013-05-10 17:43:00,
2013-05-10 11:50:00,73.4,60.4,30.29,SW,225,3.1,3.1,64,0.00,,,0.01,meteobridge,2013-05-10 17:50:00,
2013-05-10 11:56:00,71.8,61.9,30.30,NW,315,1.6,6.0,71,0.00,,,0.01,meteobridge,2013-05-10 17:56:00,
2013-05-10 12:02:00,70.9,61.3,30.29,SW,225,4.5,5.4,72,0.00,,,0.01,meteobridge,2013-05-10 18:02:00,
2013-05-10 12:09:00,71.6,62.1,30.29,SE,135,1.6,2.2,72,0.00,,,0.01,meteobridge,2013-05-10 18:09:00,
2013-05-10 12:15:00,71.8,61.9,30.29,East,90,0.0,2.2,71,0.00,,,0.01,meteobridge,2013-05-10 18:15:00,
2013-05-10 12:21:00,71.6,61.7,30.29,SE,135,1.6,2.2,71,0.00,,,0.01,meteobridge,2013-05-10 18:21:00,
2013-05-10 12:28:00,70.7,61.2,30.28,SE,135,1.6,5.4,72,0.00,,,0.01,meteobridge,2013-05-10 18:28:00,
2013-05-10 12:34:00,70.5,61.5,30.28,North,0,0.0,3.1,73,0.00,,,0.01,meteobridge,2013-05-10 18:34:00,
2013-05-10 12:43:00,69.6,61.3,30.27,North,0,0.0,0.0,75,0.01,,,0.02,meteobridge,2013-05-10 18:43:00,
2013-05-10 12:49:00,68.5,61.7,30.28,East,90,2.2,5.4,79,0.04,,,0.05,meteobridge,2013-05-10 18:49:00,
2013-05-10 12:55:00,66.7,61.7,30.27,East,90,3.1,3.8,84,0.13,,,0.14,meteobridge,2013-05-10 18:55:00,
2013-05-10 13:02:00,66.6,62.2,30.27,North,0,3.8,9.2,86,0.28,,,0.30,meteobridge,2013-05-10 19:02:00,
2013-05-10 13:08:00,66.4,62.4,30.26,North,0,3.1,4.5,87,0.30,,,0.31,meteobridge,2013-05-10 19:08:00,
2013-05-10 13:16:00,66.6,63.1,30.26,East,90,0.7,2.2,89,0.38,,,0.39,meteobridge,2013-05-10 19:16:00,
2013-05-10 13:23:00,66.7,63.3,30.26,South,180,0.0,1.6,89,0.45,,,0.46,meteobridge,2013-05-10 19:23:00,
2013-05-10 13:29:00,66.7,63.3,30.26,SW,225,0.0,0.0,89,0.48,,,0.50,meteobridge,2013-05-10 19:29:00,
2013-05-10 13:35:00,67.8,64.4,30.26,South,180,0.0,0.0,89,0.51,,,0.52,meteobridge,2013-05-10 19:35:00,
2013-05-10 13:42:00,68.9,64.9,30.25,South,180,0.0,0.0,87,0.50,,,0.52,meteobridge,2013-05-10 19:42:00,
2013-05-10 13:50:00,71.1,66.0,30.25,South,180,0.0,0.0,84,0.46,,,0.52,meteobridge,2013-05-10 19:50:00,
2013-05-10 13:56:00,70.3,64.6,30.24,SW,225,0.0,0.7,82,0.27,,,0.52,meteobridge,2013-05-10 19:56:00,
2013-05-10 14:03:00,72.7,65.1,30.24,SW,225,3.1,3.1,77,0.22,,,0.52,meteobridge,2013-05-10 20:03:00,
2013-05-10 14:09:00,72.1,62.2,30.24,NW,315,3.1,4.5,71,0.20,,,0.52,meteobridge,2013-05-10 20:09:00,
2013-05-10 14:15:00,69.8,62.2,30.24,West,270,3.8,3.8,77,0.12,,,0.52,meteobridge,2013-05-10 20:15:00,
2013-05-10 14:22:00,68.9,62.4,30.24,West,270,2.2,3.1,80,0.06,,,0.52,meteobridge,2013-05-10 20:22:00,
2013-05-10 14:28:00,68.7,63.3,30.24,West,270,2.2,3.1,83,0.02,,,0.52,meteobridge,2013-05-10 20:28:00,
2013-05-10 14:34:00,68.4,63.3,30.24,North,0,3.1,3.1,84,0.00,,,0.52,meteobridge,2013-05-10 20:34:00,
2013-05-10 14:41:00,68.7,64.0,30.24,North,0,0.0,1.6,85,0.00,,,0.52,meteobridge,2013-05-10 20:41:00,
2013-05-10 14:47:00,68.4,63.3,30.24,North,0,2.2,3.1,84,0.00,,,0.52,meteobridge,2013-05-10 20:47:00,
2013-05-10 14:53:00,68.4,63.0,30.24,SW,225,0.0,1.6,83,0.00,,,0.52,meteobridge,2013-05-10 20:53:00,
2013-05-10 15:00:00,68.9,63.5,30.24,South,180,0.0,0.0,83,0.00,,,0.52,meteobridge,2013-05-10 21:00:00,
2013-05-10 15:06:00,68.7,63.3,30.23,East,90,0.7,0.7,83,0.00,,,0.52,meteobridge,2013-05-10 21:06:00,
2013-05-10 15:13:00,68.9,63.5,30.24,West,270,0.0,0.0,83,0.00,,,0.52,meteobridge,2013-05-10 21:13:00,
2013-05-10 15:19:00,68.5,63.5,30.23,West,270,2.2,2.2,84,0.00,,,0.52,meteobridge,2013-05-10 21:19:00,
2013-05-10 15:25:00,68.7,63.7,30.23,West,270,0.0,0.7,84,0.00,,,0.52,meteobridge,2013-05-10 21:25:00,
2013-05-10 15:32:00,68.0,63.0,30.24,West,270,0.0,3.1,84,0.00,,,0.52,meteobridge,2013-05-10 21:32:00,
2013-05-10 15:38:00,67.8,63.5,30.23,West,270,0.0,3.1,86,0.00,,,0.52,meteobridge,2013-05-10 21:38:00,
2013-05-10 15:44:00,68.0,63.3,30.24,SW,225,4.5,4.5,85,0.00,,,0.52,meteobridge,2013-05-10 21:44:00,
2013-05-10 15:51:00,66.7,62.8,30.24,SW,225,2.2,3.8,87,0.00,,,0.52,meteobridge,2013-05-10 21:51:00,
2013-05-10 15:59:00,66.6,62.6,30.24,NW,315,2.2,3.1,87,0.00,,,0.52,meteobridge,2013-05-10 21:59:00,
2013-05-10 16:01:00,66.9,63.0,30.24,NW,315,0.0,1.6,87,0.00,,,0.52,meteobridge,2013-05-10 22:01:00,
2013-05-10 16:03:00,67.1,63.1,30.24,West,270,0.0,0.0,87,0.00,,,0.52,meteobridge,2013-05-10 22:03:00,
2013-05-10 16:10:00,66.9,63.0,30.24,NW,315,0.0,0.0,87,0.00,,,0.52,meteobridge,2013-05-10 22:10:00,
2013-05-10 16:16:00,66.7,63.1,30.23,West,270,0.0,0.0,88,0.00,,,0.52,meteobridge,2013-05-10 22:16:00,
2013-05-10 16:22:00,66.6,62.6,30.23,West,270,0.0,0.7,87,0.00,,,0.52,meteobridge,2013-05-10 22:22:00,
2013-05-10 16:29:00,66.6,63.0,30.24,South,180,0.0,0.0,88,0.01,,,0.53,meteobridge,2013-05-10 22:29:00,
2013-05-10 16:35:00,66.7,63.3,30.24,South,180,0.0,0.0,89,0.01,,,0.53,meteobridge,2013-05-10 22:35:00,
2013-05-10 16:41:00,66.2,62.6,30.24,West,270,0.7,3.1,88,0.01,,,0.53,meteobridge,2013-05-10 22:41:00,
2013-05-10 16:43:00,65.7,62.2,30.24,West,270,2.2,3.1,89,0.01,,,0.53,meteobridge,2013-05-10 22:43:00,
2013-05-10 16:50:00,65.8,62.8,30.24,SE,135,0.0,1.6,90,0.01,,,0.53,meteobridge,2013-05-10 22:50:00,
2013-05-10 16:56:00,65.8,62.8,30.25,SW,225,0.7,1.6,90,0.01,,,0.53,meteobridge,2013-05-10 22:56:00,
2013-05-10 17:02:00,65.7,62.1,30.25,SE,135,3.1,4.5,88,0.01,,,0.53,meteobridge,2013-05-10 23:02:00,
2013-05-10 17:09:00,65.5,61.9,30.26,South,180,0.0,0.0,88,0.01,,,0.53,meteobridge,2013-05-10 23:09:00,
2013-05-10 17:15:00,64.8,61.5,30.26,NE,45,2.2,2.2,89,0.14,,,0.66,meteobridge,2013-05-10 23:15:00,
2013-05-10 17:23:00,64.9,61.9,30.26,East,90,0.0,0.0,90,0.17,,,0.69,meteobridge,2013-05-10 23:23:00,
2013-05-10 17:30:00,64.9,62.2,30.26,South,180,0.0,0.0,91,0.17,,,0.70,meteobridge,2013-05-10 23:30:00,
2013-05-10 17:36:00,64.8,62.1,30.26,South,180,0.0,0.0,91,0.17,,,0.70,meteobridge,2013-05-10 23:36:00,
2013-05-10 17:42:00,64.8,62.1,30.26,SE,135,3.1,3.1,91,0.17,,,0.70,meteobridge,2013-05-10 23:42:00,
2013-05-10 17:49:00,65.3,62.6,30.26,South,180,3.1,4.5,91,0.17,,,0.70,meteobridge,2013-05-10 23:49:00,
2013-05-10 17:55:00,65.3,62.1,30.26,South,180,1.6,1.6,89,0.17,,,0.70,meteobridge,2013-05-10 23:55:00,
2013-05-10 18:04:00,65.3,62.1,30.27,South,180,0.0,0.0,89,0.17,,,0.70,meteobridge,2013-05-11 00:04:00,
2013-05-10 18:10:00,65.3,62.1,30.27,South,180,1.6,1.6,89,0.15,,,0.70,meteobridge,2013-05-11 00:10:00,
2013-05-10 18:16:00,64.9,61.7,30.27,South,180,0.0,0.0,89,0.02,,,0.70,meteobridge,2013-05-11 00:16:00,
2013-05-10 18:23:00,64.9,61.7,30.28,South,180,0.0,0.0,89,0.01,,,0.70,meteobridge,2013-05-11 00:23:00,
2013-05-10 18:29:00,65.1,61.9,30.28,South,180,0.0,0.0,89,0.00,,,0.70,meteobridge,2013-05-11 00:29:00,
2013-05-10 18:35:00,64.9,61.7,30.28,South,180,0.0,0.0,89,0.00,,,0.70,meteobridge,2013-05-11 00:35:00,
2013-05-10 18:42:00,64.8,61.5,30.29,South,180,2.2,3.8,89,0.00,,,0.70,meteobridge,2013-05-11 00:42:00,
2013-05-10 18:48:00,64.4,61.2,30.29,SW,225,3.1,3.1,89,0.00,,,0.70,meteobridge,2013-05-11 00:48:00,
2013-05-10 18:54:00,64.4,61.3,30.29,South,180,3.8,4.5,90,0.00,,,0.70,meteobridge,2013-05-11 00:54:00,
2013-05-10 19:01:00,64.2,61.0,30.29,South,180,3.1,4.5,89,0.00,,,0.70,meteobridge,2013-05-11 01:01:00,
2013-05-10 19:09:00,64.2,61.2,30.29,South,180,2.2,2.2,90,0.00,,,0.70,meteobridge,2013-05-11 01:09:00,
2013-05-10 19:15:00,64.2,61.0,30.29,SW,225,3.1,3.8,89,0.00,,,0.70,meteobridge,2013-05-11 01:15:00,
2013-05-10 19:22:00,64.0,60.8,30.29,South,180,2.2,3.1,89,0.00,,,0.70,meteobridge,2013-05-11 01:22:00,
2013-05-10 19:28:00,64.0,60.8,30.29,South,180,0.0,3.1,89,0.00,,,0.70,meteobridge,2013-05-11 01:28:00,
2013-05-10 19:34:00,64.0,60.8,30.29,South,180,0.0,0.0,89,0.00,,,0.70,meteobridge,2013-05-11 01:34:00,
2013-05-10 19:45:00,64.0,60.8,30.30,South,180,0.0,0.0,89,0.00,,,0.70,meteobridge,2013-05-11 01:45:00,
2013-05-10 19:51:00,63.7,60.4,30.30,NW,315,0.0,0.0,89,0.00,,,0.70,meteobridge,2013-05-11 01:51:00,
2013-05-10 19:58:00,63.5,60.4,30.30,North,0,0.0,0.0,90,0.00,,,0.70,meteobridge,2013-05-11 01:58:00,
2013-05-10 20:04:00,63.5,60.4,30.30,South,180,0.0,0.0,90,0.00,,,0.70,meteobridge,2013-05-11 02:04:00,
2013-05-10 20:10:00,63.1,60.1,30.31,SW,225,0.0,1.6,90,0.00,,,0.70,meteobridge,2013-05-11 02:10:00,
2013-05-10 20:17:00,63.0,60.3,30.31,South,180,0.0,0.0,91,0.00,,,0.70,meteobridge,2013-05-11 02:17:00,
2013-05-10 20:23:00,63.0,60.3,30.32,South,180,0.0,0.0,91,0.00,,,0.70,meteobridge,2013-05-11 02:23:00,
2013-05-10 20:29:00,63.1,60.4,30.32,South,180,0.0,0.0,91,0.00,,,0.70,meteobridge,2013-05-11 02:29:00,
2013-05-10 20:36:00,63.3,60.6,30.32,South,180,0.0,0.0,91,0.00,,,0.70,meteobridge,2013-05-11 02:36:00,
2013-05-10 20:42:00,63.3,60.6,30.32,West,270,0.0,0.0,91,0.00,,,0.70,meteobridge,2013-05-11 02:42:00,
2013-05-10 20:48:00,63.0,59.9,30.32,South,180,0.0,0.0,90,0.00,,,0.70,meteobridge,2013-05-11 02:48:00,
2013-05-10 20:55:00,62.8,59.7,30.32,South,180,0.0,0.0,90,0.00,,,0.70,meteobridge,2013-05-11 02:55:00,
2013-05-10 21:01:00,62.8,60.1,30.32,South,180,0.0,0.0,91,0.00,,,0.70,meteobridge,2013-05-11 03:01:00,
2013-05-10 21:07:00,62.6,59.9,30.33,South,180,0.0,0.0,91,0.00,,,0.70,meteobridge,2013-05-11 03:07:00,
2013-05-10 21:14:00,62.4,60.1,30.33,South,180,0.0,0.0,92,0.00,,,0.70,meteobridge,2013-05-11 03:14:00,
2013-05-10 21:20:00,62.4,60.1,30.33,South,180,0.0,0.0,92,0.00,,,0.70,meteobridge,2013-05-11 03:20:00,
2013-05-10 21:28:00,62.4,60.1,30.34,South,180,0.0,0.0,92,0.00,,,0.70,meteobridge,2013-05-11 03:28:00,
2013-05-10 21:35:00,62.4,60.1,30.34,South,180,0.0,0.0,92,0.00,,,0.70,meteobridge,2013-05-11 03:35:00,
2013-05-10 21:41:00,62.4,60.1,30.34,South,180,0.0,0.0,92,0.00,,,0.70,meteobridge,2013-05-11 03:41:00,
2013-05-10 21:47:00,62.2,59.5,30.34,South,180,0.0,0.0,91,0.00,,,0.70,meteobridge,2013-05-11 03:47:00,
2013-05-10 21:54:00,62.4,59.7,30.34,NE,45,0.0,0.0,91,0.00,,,0.70,meteobridge,2013-05-11 03:54:00,
2013-05-10 22:00:00,62.6,59.4,30.34,South,180,0.0,0.0,89,0.00,,,0.70,meteobridge,2013-05-11 04:00:00,
2013-05-10 22:04:00,62.6,59.4,30.34,South,180,0.0,0.0,89,0.00,,,0.70,meteobridge,2013-05-11 04:04:00,
2013-05-10 22:07:00,62.4,59.4,30.34,East,90,0.0,0.0,90,0.00,,,0.70,meteobridge,2013-05-11 04:07:00,
2013-05-10 22:15:00,62.4,59.4,30.34,South,180,0.0,0.0,90,0.00,,,0.70,meteobridge,2013-05-11 04:15:00,
2013-05-10 22:17:00,62.4,59.4,30.34,South,180,0.0,0.0,90,0.00,,,0.70,meteobridge,2013-05-11 04:17:00,
2013-05-10 22:19:00,62.2,59.2,30.33,South,180,0.0,0.0,90,0.00,,,0.70,meteobridge,2013-05-11 04:19:00,
2013-05-10 22:26:00,62.2,59.2,30.33,SE,135,0.0,0.7,90,0.00,,,0.70,meteobridge,2013-05-11 04:26:00,
2013-05-10 22:32:00,62.4,59.2,30.33,SE,135,0.0,0.0,89,0.00,,,0.70,meteobridge,2013-05-11 04:32:00,
2013-05-10 22:38:00,62.2,59.0,30.33,East,90,0.0,0.0,89,0.00,,,0.70,meteobridge,2013-05-11 04:38:00,
2013-05-10 22:45:00,62.2,59.0,30.33,South,180,0.0,0.0,89,0.00,,,0.70,meteobridge,2013-05-11 04:45:00,
2013-05-10 22:51:00,62.2,59.0,30.32,East,90,0.0,0.0,89,0.00,,,0.70,meteobridge,2013-05-11 04:51:00,
2013-05-10 22:57:00,62.2,58.6,30.32,NE,45,0.0,1.6,88,0.00,,,0.70,meteobridge,2013-05-11 04:57:00,
2013-05-10 23:06:00,62.2,58.6,30.32,East,90,1.6,1.6,88,0.00,,,0.70,meteobridge,2013-05-11 05:06:00,
2013-05-10 23:14:00,62.1,58.1,30.32,SE,135,0.0,0.0,87,0.00,,,0.70,meteobridge,2013-05-11 05:14:00,
2013-05-10 23:20:00,62.1,58.1,30.32,South,180,0.0,0.0,87,0.00,,,0.70,meteobridge,2013-05-11 05:20:00,
2013-05-10 23:27:00,62.1,58.1,30.32,NE,45,0.0,0.7,87,0.00,,,0.70,meteobridge,2013-05-11 05:27:00,
2013-05-10 23:33:00,62.2,57.9,30.32,SE,135,0.0,1.6,86,0.00,,,0.70,meteobridge,2013-05-11 05:33:00,
2013-05-10 23:39:00,62.1,57.7,30.31,NE,45,0.0,0.7,86,0.00,,,0.70,meteobridge,2013-05-11 05:39:00,
2013-05-10 23:46:00,62.1,57.6,30.31,East,90,1.6,1.6,85,0.00,,,0.70,meteobridge,2013-05-11 05:46:00,
2013-05-10 23:52:00,61.9,57.4,30.30,SE,135,0.0,0.0,85,0.00,,,0.70,meteobridge,2013-05-11 05:52:00,
2013-05-10 23:58:00,61.9,57.4,30.30,SE,135,0.0,0.7,85,0.00,,,0.70,meteobridge,2013-05-11 05:58:00,